Time;durP1;ratioP1;P1;durP2;ratioP2;P2;SDS_P1;SDS_P2;PMS_P1;PMS_P2;Temp;Humidity;BMP_temperature;BMP_pressure;BME280_temperature;BME280_humidity;BME280_pressure;Samples;Min_cycle;Max_cycle;Signal;HPM_P1;HPM_P2
2021/06/17 00:00:16;;;;;;;19.67;8.52;;;;;;;17.53;58.76;100462.16;5107949;28;20127;-79
2021/06/17 00:02:45;;;;;;;13.43;7.15;;;;;;;17.45;58.81;100459.41;5110118;28;20081;-78
2021/06/17 00:05:15;;;;;;;10.18;6.53;;;;;;;17.38;59.02;100465.34;5109635;27;20054;-79
2021/06/17 00:07:42;;;;;;;9.68;6.85;;;;;;;17.28;59.04;100467.25;5110290;28;20086;-77
2021/06/17 00:10:12;;;;;;;11.93;6.80;;;;;;;17.16;59.44;100463.94;5110288;28;20047;-79
2021/06/17 00:12:41;;;;;;;12.50;7.43;;;;;;;17.10;59.53;100466.38;5109378;28;20044;-77
2021/06/17 00:15:11;;;;;;;14.90;6.80;;;;;;;17.08;59.60;100465.69;5109810;28;20050;-76
2021/06/17 00:17:39;;;;;;;9.40;5.82;;;;;;;17.06;59.04;100463.16;5109472;28;20063;-78
2021/06/17 00:20:09;;;;;;;10.80;6.35;;;;;;;17.05;59.11;100464.16;5109658;28;20044;-79
2021/06/17 00:22:36;;;;;;;8.57;4.90;;;;;;;17.03;58.98;100460.78;5109791;28;20129;-79
2021/06/17 00:25:05;;;;;;;9.95;5.57;;;;;;;17.05;58.92;100464.16;5090999;28;20196;-77
2021/06/17 00:27:32;;;;;;;8.45;4.90;;;;;;;17.10;58.80;100474.38;5055725;28;20716;-79
2021/06/17 00:29:58;;;;;;;9.07;6.50;;;;;;;17.14;58.70;100462.41;5107742;28;20047;-78
2021/06/17 00:32:25;;;;;;;7.57;5.28;;;;;;;17.18;58.57;100463.81;5106683;28;20048;-78
2021/06/17 00:34:52;;;;;;;9.80;6.97;;;;;;;17.18;58.75;100453.13;5106640;28;20047;-77
2021/06/17 00:37:21;;;;;;;9.30;5.00;;;;;;;17.19;58.85;100465.47;5107259;28;20054;-76
2021/06/17 00:39:48;;;;;;;7.43;4.95;;;;;;;17.22;58.69;100465.19;5106596;28;20047;-77
2021/06/17 00:42:15;;;;;;;8.75;5.97;;;;;;;17.23;58.75;100456.16;5107102;28;20107;-76
2021/06/17 00:44:42;;;;;;;8.57;5.20;;;;;;;17.27;58.73;100462.03;5107552;28;20043;-76
2021/06/17 00:47:10;;;;;;;11.05;6.10;;;;;;;17.26;58.70;100463.06;5107781;28;20062;-76
2021/06/17 00:49:37;;;;;;;13.00;6.22;;;;;;;17.28;58.69;100469.06;5107121;28;20067;-76
2021/06/17 00:52:07;;;;;;;7.25;4.78;;;;;;;17.30;58.49;100451.91;5107721;28;20050;-77
2021/06/17 00:54:36;;;;;;;10.40;4.97;;;;;;;17.35;58.41;100454.97;5107033;28;20059;-77
2021/06/17 00:57:05;;;;;;;8.45;4.93;;;;;;;17.35;58.40;100459.47;5107861;28;20205;-75
2021/06/17 00:59:32;;;;;;;7.45;5.03;;;;;;;17.35;58.29;100454.97;5106512;28;20044;-74
2021/06/17 01:01:59;;;;;;;11.05;6.22;;;;;;;17.36;58.34;100451.31;5106342;28;20043;-74
2021/06/17 01:04:31;;;;;;;8.75;5.18;;;;;;;17.35;58.31;100462.97;5107524;28;20108;-74
2021/06/17 01:06:58;;;;;;;9.23;5.70;;;;;;;17.36;58.17;100453.16;5107939;28;20085;-77
2021/06/17 01:09:40;;;;;;;7.97;6.25;;;;;;;17.37;58.17;100450.31;5112581;28;20112;-75
2021/06/17 01:12:15;;;;;;;12.27;5.10;;;;;;;17.36;58.27;100459.34;5106922;28;20048;-76
2021/06/17 01:14:46;;;;;;;6.97;4.65;;;;;;;17.41;58.22;100460.69;5109186;28;20367;-76
2021/06/17 01:17:17;;;;;;;7.68;5.07;;;;;;;17.39;58.13;100456.38;5109525;28;20048;-75
2021/06/17 01:20:01;;;;;;;6.00;4.97;;;;;;;17.42;58.13;100454.38;5113599;28;20119;-77
2021/06/17 01:22:33;;;;;;;7.30;4.72;;;;;;;17.41;58.13;100458.88;5110686;28;20047;-74
2021/06/17 01:25:21;;;;;;;10.30;6.28;;;;;;;17.39;58.09;100456.38;5108527;28;20057;-75
2021/06/17 01:28:10;;;;;;;6.90;4.35;;;;;;;17.39;58.02;100455.50;5116991;28;20057;-76
2021/06/17 01:30:45;;;;;;;8.57;5.60;;;;;;;17.38;57.89;100459.19;5109129;28;20044;-74
2021/06/17 01:33:14;;;;;;;11.68;6.68;;;;;;;17.36;57.82;100461.16;5109245;28;20048;-74
2021/06/17 01:35:45;;;;;;;9.88;5.40;;;;;;;17.33;58.03;100456.13;5109510;28;20054;-76
2021/06/17 01:38:17;;;;;;;8.77;6.18;;;;;;;17.34;57.98;100466.66;5117672;28;20057;-76
2021/06/17 01:40:45;;;;;;;10.18;5.88;;;;;;;17.33;58.05;100451.63;5117552;28;20043;-75
2021/06/17 01:43:15;;;;;;;10.63;6.93;;;;;;;17.32;58.06;100462.44;5120116;28;20032;-75
2021/06/17 01:45:43;;;;;;;7.53;5.50;;;;;;;17.30;58.01;100451.91;5118461;28;20056;-74
2021/06/17 01:48:10;;;;;;;8.88;5.63;;;;;;;17.30;57.91;100462.59;5120911;28;20043;-76
2021/06/17 01:50:38;;;;;;;7.20;4.57;;;;;;;17.28;58.03;100458.41;5124342;28;20052;-78
2021/06/17 01:53:06;;;;;;;9.25;6.47;;;;;;;17.24;58.03;100460.53;5127425;28;20253;-76
2021/06/17 01:55:38;;;;;;;12.63;7.03;;;;;;;17.20;58.00;100457.31;5134251;28;20051;-77
2021/06/17 01:58:07;;;;;;;8.60;4.88;;;;;;;17.20;58.07;100451.16;5132676;28;20044;-78
2021/06/17 02:00:38;;;;;;;9.30;5.03;;;;;;;17.18;58.13;100451.28;5132117;28;20053;-76
2021/06/17 02:03:07;;;;;;;8.20;5.25;;;;;;;17.19;58.14;100452.13;5135666;28;20058;-76
2021/06/17 02:05:35;;;;;;;8.48;5.35;;;;;;;17.17;58.07;100446.94;5134710;28;20043;-76
2021/06/17 02:08:04;;;;;;;12.20;5.05;;;;;;;17.17;57.94;100457.59;5130926;28;20081;-75
2021/06/17 02:10:32;;;;;;;7.78;5.57;;;;;;;17.18;57.89;100455.78;5124311;28;20379;-75
2021/06/17 02:13:00;;;;;;;7.85;4.57;;;;;;;17.15;58.13;100458.75;5124749;28;20417;-75
2021/06/17 02:15:28;;;;;;;8.60;5.65;;;;;;;17.12;58.10;100469.72;5105607;28;20043;-74
2021/06/17 02:17:58;;;;;;;10.88;5.40;;;;;;;17.11;58.06;100462.72;5123218;28;20127;-76
2021/06/17 02:20:26;;;;;;;6.50;4.70;;;;;;;17.12;58.04;100464.38;5122286;28;20055;-75
2021/06/17 02:22:57;;;;;;;8.20;5.07;;;;;;;17.11;57.93;100462.72;5122209;28;20054;-76
2021/06/17 02:25:26;;;;;;;9.00;4.38;;;;;;;17.08;58.01;100468.34;5121623;28;20118;-76
2021/06/17 02:27:58;;;;;;;5.95;4.38;;;;;;;17.07;58.06;100463.97;5119452;28;20051;-77
2021/06/17 02:30:28;;;;;;;8.77;5.10;;;;;;;17.09;57.93;100462.88;5120851;28;20058;-78
2021/06/17 02:33:01;;;;;;;8.82;4.78;;;;;;;17.12;57.91;100465.22;5120401;28;20418;-77
2021/06/17 02:35:29;;;;;;;8.77;6.30;;;;;;;17.17;57.71;100473.63;5120098;28;20051;-79
2021/06/17 02:37:59;;;;;;;6.57;4.78;;;;;;;17.22;57.62;100473.19;5119348;28;20619;-75
2021/06/17 02:40:29;;;;;;;9.25;5.72;;;;;;;17.27;57.39;100470.91;5119642;28;20047;-75
2021/06/17 02:42:57;;;;;;;6.97;4.65;;;;;;;17.33;57.28;100464.97;5120149;28;20104;-73
2021/06/17 02:45:28;;;;;;;8.20;5.25;;;;;;;17.36;57.18;100472.69;5120890;28;20058;-77
2021/06/17 02:47:58;;;;;;;6.85;4.72;;;;;;;17.41;57.15;100466.88;5120299;28;20039;-75
2021/06/17 02:50:25;;;;;;;9.38;5.57;;;;;;;17.42;56.99;100465.06;5120779;28;20043;-78
2021/06/17 02:52:52;;;;;;;8.05;5.15;;;;;;;17.42;56.96;100467.72;5121998;28;20043;-77
2021/06/17 02:55:19;;;;;;;7.00;5.72;;;;;;;17.46;57.24;100471.78;5119288;28;20043;-77
2021/06/17 02:57:57;;;;;;;6.65;5.25;;;;;;;17.50;56.92;100462.47;5119764;28;20058;-77
2021/06/17 03:00:29;;;;;;;7.47;5.43;;;;;;;17.54;56.69;100470.03;5119620;28;20043;-77
2021/06/17 03:03:08;;;;;;;9.10;6.10;;;;;;;17.61;56.72;100470.28;5120082;28;20051;-74
2021/06/17 03:05:39;;;;;;;32.50;21.67;;;;;;;17.64;56.45;100472.63;5119881;28;20124;-77
2021/06/17 03:08:18;;;;;;;12.02;7.13;;;;;;;17.66;56.49;100475.97;5122316;28;20040;-78
2021/06/17 03:10:48;;;;;;;9.73;5.88;;;;;;;17.77;56.39;100470.44;5123704;28;20044;-78
2021/06/17 03:13:17;;;;;;;8.70;5.47;;;;;;;17.87;56.34;100474.88;5070482;28;20477;-76
2021/06/17 03:15:46;;;;;;;9.80;5.22;;;;;;;17.95;56.00;100474.94;5122166;28;20044;-77
2021/06/17 03:18:17;;;;;;;9.88;5.80;;;;;;;18.04;55.96;100474.03;5121780;28;20043;-78
2021/06/17 03:20:45;;;;;;;7.05;5.13;;;;;;;18.09;55.89;100477.06;5128557;28;20291;-77
2021/06/17 03:23:15;;;;;;;13.90;6.63;;;;;;;18.14;55.96;100477.44;5133704;28;20110;-75
2021/06/17 03:25:43;;;;;;;7.65;5.05;;;;;;;18.13;55.77;100475.78;5129512;28;20059;-77
2021/06/17 03:28:14;;;;;;;6.97;5.07;;;;;;;18.13;55.71;100481.13;5127459;28;20131;-77
2021/06/17 03:30:44;;;;;;;9.23;5.00;;;;;;;18.15;55.95;100472.97;5127151;28;20054;-77
2021/06/17 03:33:16;;;;;;;8.70;5.68;;;;;;;18.19;55.89;100471.66;5125232;28;20514;-79
2021/06/17 03:35:44;;;;;;;7.75;5.55;;;;;;;18.24;55.86;100476.50;5123913;28;20353;-78
2021/06/17 03:38:13;;;;;;;11.13;5.70;;;;;;;18.25;55.93;100472.84;5112514;28;20054;-78
2021/06/17 03:40:42;;;;;;;11.77;5.88;;;;;;;18.27;55.87;100473.53;5109844;28;20048;-76
2021/06/17 03:43:10;;;;;;;11.13;6.22;;;;;;;18.31;56.03;100477.56;5112859;28;20040;-76
2021/06/17 03:45:40;;;;;;;7.70;5.43;;;;;;;18.37;55.77;100470.78;5111043;28;20048;-76
2021/06/17 03:48:09;;;;;;;7.75;6.05;;;;;;;18.41;55.78;100472.13;5112213;28;20051;-77
2021/06/17 03:50:38;;;;;;;8.00;5.93;;;;;;;18.47;55.66;100479.53;5111053;28;20039;-77
2021/06/17 03:53:05;;;;;;;8.07;6.22;;;;;;;18.56;55.54;100475.06;5109584;28;20418;-76
2021/06/17 03:55:35;;;;;;;9.23;5.88;;;;;;;18.61;55.62;100483.47;5111276;28;20047;-76
2021/06/17 03:58:04;;;;;;;8.82;6.13;;;;;;;18.69;55.39;100486.16;5110334;28;20109;-75
2021/06/17 04:00:31;;;;;;;10.38;6.68;;;;;;;18.76;55.17;100481.88;5110180;28;20051;-75
2021/06/17 04:03:00;;;;;;;10.20;6.72;;;;;;;18.85;55.13;100477.44;5109925;28;20051;-76
2021/06/17 04:05:28;;;;;;;7.47;6.07;;;;;;;18.92;55.04;100478.47;5091344;28;20677;-77
2021/06/17 04:08:00;;;;;;;8.15;5.93;;;;;;;19.03;54.94;100477.34;5111837;28;20487;-78
2021/06/17 04:10:29;;;;;;;8.93;6.57;;;;;;;19.13;54.77;100475.38;5110183;28;20079;-75
2021/06/17 04:12:58;;;;;;;11.77;6.53;;;;;;;19.20;54.70;100473.75;5109956;28;20047;-75
2021/06/17 04:15:30;;;;;;;7.18;5.35;;;;;;;19.28;54.34;100472.91;5110921;28;20130;-77
2021/06/17 04:18:00;;;;;;;11.82;7.55;;;;;;;19.37;54.39;100469.25;5048216;28;20132;-78
2021/06/17 04:20:30;;;;;;;13.75;10.02;;;;;;;19.44;54.10;100474.81;5047018;28;20067;-78
2021/06/17 04:23:01;;;;;;;12.85;9.80;;;;;;;19.53;54.30;100467.63;5047509;28;20053;-75
2021/06/17 04:25:28;;;;;;;11.43;8.43;;;;;;;19.64;54.20;100472.66;5049668;28;20136;-75
2021/06/17 04:27:58;;;;;;;9.27;8.30;;;;;;;19.74;54.44;100475.25;5043542;28;20051;-74
2021/06/17 04:30:27;;;;;;;10.60;7.32;;;;;;;19.81;54.25;100477.09;5043396;28;20045;-77
2021/06/17 04:32:55;;;;;;;9.20;7.10;;;;;;;19.89;54.24;100473.56;5046994;28;20443;-77
2021/06/17 04:35:24;;;;;;;11.57;7.60;;;;;;;19.99;54.49;100478.78;5047597;28;20167;-77
2021/06/17 04:37:52;;;;;;;11.35;7.38;;;;;;;20.11;54.21;100477.41;5043226;28;20140;-71
2021/06/17 04:40:22;;;;;;;12.85;8.73;;;;;;;20.24;54.16;100475.09;5043417;28;20439;-77
2021/06/17 04:42:50;;;;;;;16.40;8.63;;;;;;;20.34;54.23;100482.94;5081403;28;20044;-70
2021/06/17 04:45:17;;;;;;;9.50;7.38;;;;;;;20.51;54.21;100481.09;5107718;28;20044;-73
2021/06/17 04:47:49;;;;;;;11.02;7.80;;;;;;;21.51;52.21;100491.31;5111513;28;20047;-74
2021/06/17 04:50:18;;;;;;;11.85;9.45;;;;;;;22.93;49.21;100477.34;5114659;28;20058;-76
2021/06/17 04:53:17;;;;;;;13.02;8.55;;;;;;;24.38;46.61;100483.66;5108523;28;20047;-72
2021/06/17 04:55:57;;;;;;;12.13;6.82;;;;;;;25.32;44.64;100479.69;5111921;28;20043;-80
2021/06/17 04:58:27;;;;;;;14.23;8.00;;;;;;;26.03;42.98;100481.09;5119550;28;20050;-81
2021/06/17 05:01:00;;;;;;;12.00;7.97;;;;;;;26.36;42.08;100477.53;5115055;28;20043;-79
2021/06/17 05:03:29;;;;;;;14.52;8.10;;;;;;;26.60;41.07;100476.06;5112843;28;20047;-79
2021/06/17 05:05:58;;;;;;;9.50;7.10;;;;;;;27.10;40.43;100479.09;5108605;28;20121;-80
2021/06/17 05:11:21;;;;;;;12.55;7.22;;;;;;;28.25;38.35;100483.59;5114042;28;20066;-77
2021/06/17 05:13:48;;;;;;;11.00;7.18;;;;;;;28.57;37.17;100470.78;5109950;28;20048;-78
2021/06/17 05:16:15;;;;;;;12.13;7.47;;;;;;;28.79;36.74;100478.50;5109583;28;20063;-76
2021/06/17 05:18:42;;;;;;;10.50;7.07;;;;;;;29.19;35.87;100471.78;5092314;28;20051;-78
2021/06/17 05:21:09;;;;;;;10.30;7.13;;;;;;;29.40;35.49;100475.91;5109501;28;20131;-77
2021/06/17 05:23:38;;;;;;;10.55;6.07;;;;;;;29.51;35.41;100475.13;5109716;28;20057;-76
2021/06/17 05:26:06;;;;;;;8.98;6.13;;;;;;;29.65;35.06;100475.75;5108520;28;20079;-77
2021/06/17 05:28:35;;;;;;;10.43;6.43;;;;;;;29.89;34.52;100474.81;5111090;28;20046;-76
2021/06/17 05:31:05;;;;;;;10.43;6.30;;;;;;;30.04;34.35;100487.97;5110018;28;20044;-77
2021/06/17 05:33:32;;;;;;;8.35;6.00;;;;;;;30.26;33.42;100476.50;5089157;28;20059;-78
2021/06/17 05:36:01;;;;;;;10.25;5.63;;;;;;;30.42;33.03;100478.53;5109542;28;20507;-78
2021/06/17 05:38:30;;;;;;;10.02;6.45;;;;;;;30.29;32.90;100486.94;5072098;28;20475;-78
2021/06/17 05:41:00;;;;;;;7.70;5.82;;;;;;;30.30;33.35;100477.66;5110881;28;20104;-76
2021/06/17 05:43:28;;;;;;;11.27;6.03;;;;;;;30.37;32.68;100477.59;5109683;28;20134;-78
2021/06/17 05:45:57;;;;;;;8.75;5.25;;;;;;;30.41;32.70;100476.03;5111179;28;20051;-74
2021/06/17 05:48:25;;;;;;;6.85;5.63;;;;;;;30.40;32.56;100471.69;5090907;28;20067;-76
2021/06/17 05:50:52;;;;;;;10.50;5.90;;;;;;;30.71;32.09;100486.00;5112391;28;20043;-77
2021/06/17 05:53:20;;;;;;;6.80;5.00;;;;;;;30.75;31.59;100485.25;5108851;28;20055;-77
2021/06/17 05:55:47;;;;;;;11.20;5.28;;;;;;;30.72;31.08;100493.09;5110423;28;20302;-79
2021/06/17 05:58:14;;;;;;;9.75;4.45;;;;;;;30.89;31.22;100496.75;5112683;28;20071;-78
2021/06/17 06:00:42;;;;;;;6.70;4.68;;;;;;;30.98;30.56;100492.59;5092373;28;20127;-77
2021/06/17 06:03:13;;;;;;;11.30;5.05;;;;;;;30.60;31.47;100499.38;5111984;28;20058;-77
2021/06/17 06:05:41;;;;;;;7.55;4.07;;;;;;;29.63;32.54;100496.94;5111787;28;20060;-78
2021/06/17 06:08:11;;;;;;;6.68;4.18;;;;;;;28.53;34.07;100496.75;5112324;28;20086;-78
2021/06/17 06:10:39;;;;;;;9.73;4.80;;;;;;;27.79;35.32;100503.78;5111696;28;20093;-76
2021/06/17 06:13:09;;;;;;;10.50;4.85;;;;;;;27.24;36.32;100510.50;5109914;28;20476;-76
2021/06/17 06:15:37;;;;;;;6.88;4.80;;;;;;;26.80;37.21;100520.22;5112036;28;20059;-74
2021/06/17 06:18:08;;;;;;;7.85;4.65;;;;;;;26.84;36.70;100513.34;5112928;28;20051;-77
2021/06/17 06:20:38;;;;;;;7.93;3.97;;;;;;;27.38;35.80;100518.63;5110973;28;20126;-75
2021/06/17 06:23:08;;;;;;;10.05;3.78;;;;;;;28.11;34.66;100509.19;5105995;28;20039;-77
2021/06/17 06:25:36;;;;;;;10.05;3.67;;;;;;;28.79;33.28;100517.41;5110598;28;20066;-76
2021/06/17 06:28:08;;;;;;;7.45;3.25;;;;;;;29.64;31.89;100510.31;5086989;28;20076;-75
2021/06/17 06:30:35;;;;;;;4.93;3.35;;;;;;;30.39;31.48;100527.25;5103922;28;20055;-74
2021/06/17 06:33:02;;;;;;;7.75;3.55;;;;;;;30.69;30.47;100524.41;5108031;28;20067;-75
2021/06/17 06:35:29;;;;;;;6.47;3.33;;;;;;;30.64;30.25;100527.00;5111841;28;20048;-76
2021/06/17 06:37:57;;;;;;;5.82;3.65;;;;;;;30.87;30.07;100526.16;5108047;28;20046;-74
2021/06/17 06:40:25;;;;;;;7.03;3.13;;;;;;;30.75;30.32;100517.16;5095107;28;20049;-75
2021/06/17 06:42:55;;;;;;;5.22;3.05;;;;;;;30.44;30.59;100528.19;5109898;28;20043;-75
2021/06/17 06:45:26;;;;;;;7.32;3.78;;;;;;;30.57;31.30;100527.13;5110141;28;20048;-74
2021/06/17 06:47:55;;;;;;;13.65;4.15;;;;;;;30.58;30.65;100523.34;5109246;28;20047;-75
2021/06/17 06:50:22;;;;;;;5.90;3.50;;;;;;;29.99;30.92;100525.13;5109657;28;20058;-74
2021/06/17 06:52:49;;;;;;;5.00;2.83;;;;;;;29.19;32.30;100526.19;5109829;28;20077;-75
2021/06/17 06:55:18;;;;;;;4.85;3.47;;;;;;;28.38;33.34;100524.25;5110787;28;20047;-73
2021/06/17 06:57:45;;;;;;;8.25;3.70;;;;;;;27.87;34.73;100530.66;5110196;28;20081;-76
2021/06/17 07:00:14;;;;;;;5.53;3.70;;;;;;;27.77;35.35;100528.41;5108567;28;20556;-73
2021/06/17 07:02:42;;;;;;;7.53;3.35;;;;;;;27.67;35.57;100529.94;5109326;28;20047;-74
2021/06/17 07:05:11;;;;;;;6.07;4.00;;;;;;;27.72;36.75;100532.84;5107373;28;20073;-74
2021/06/17 07:07:39;;;;;;;7.32;3.55;;;;;;;27.63;36.58;100533.09;5110752;28;20114;-75
2021/06/17 07:10:09;;;;;;;4.72;3.65;;;;;;;27.45;36.86;100530.25;5109859;28;20101;-75
2021/06/17 07:12:38;;;;;;;7.95;3.83;;;;;;;27.27;36.67;100529.06;5090847;28;20054;-74
2021/06/17 07:15:06;;;;;;;7.03;3.25;;;;;;;27.18;36.63;100534.94;5091764;28;20054;-75
2021/06/17 07:17:35;;;;;;;10.13;4.88;;;;;;;27.14;37.12;100542.66;5109618;28;20052;-73
2021/06/17 07:20:04;;;;;;;6.97;3.92;;;;;;;27.24;37.16;100544.91;5091483;28;20098;-78
2021/06/17 07:22:31;;;;;;;6.78;3.60;;;;;;;27.35;37.26;100551.56;5109041;28;20047;-74
2021/06/17 07:24:58;;;;;;;5.18;3.63;;;;;;;27.49;37.68;100550.47;5089650;28;20043;-75
2021/06/17 07:27:26;;;;;;;6.85;4.40;;;;;;;27.60;37.33;100540.81;5088125;28;20043;-75
2021/06/17 07:29:56;;;;;;;5.32;3.30;;;;;;;27.73;37.30;100546.19;5107606;28;20459;-75
2021/06/17 07:32:24;;;;;;;6.93;3.17;;;;;;;27.96;37.05;100548.38;5105951;28;20050;-75
2021/06/17 07:34:51;;;;;;;5.28;3.60;;;;;;;28.00;37.63;100546.91;5106205;28;20047;-75
2021/06/17 07:37:20;;;;;;;7.57;4.50;;;;;;;28.02;37.56;100550.22;5105522;28;20047;-74
2021/06/17 07:39:48;;;;;;;5.63;3.42;;;;;;;28.22;37.28;100547.34;5111170;28;20040;-74
2021/06/17 07:42:15;;;;;;;6.75;3.70;;;;;;;28.28;37.15;100550.25;5111991;28;20109;-73
2021/06/17 07:44:46;;;;;;;4.80;3.90;;;;;;;28.27;37.50;100554.84;5054859;28;20130;-75
2021/06/17 07:47:16;;;;;;;7.07;4.15;;;;;;;28.27;37.58;100552.13;5089282;28;20047;-75
2021/06/17 07:49:43;;;;;;;11.68;4.95;;;;;;;28.10;37.60;100551.00;5107137;28;20048;-74
2021/06/17 07:52:14;;;;;;;6.35;4.47;;;;;;;27.99;38.06;100552.53;5109161;28;20054;-74
2021/06/17 07:54:43;;;;;;;5.95;4.07;;;;;;;27.91;38.10;100556.34;5110113;28;20503;-75
2021/06/17 07:57:10;;;;;;;6.25;4.72;;;;;;;27.90;38.20;100557.41;5108972;28;20043;-75
2021/06/17 07:59:38;;;;;;;11.80;4.72;;;;;;;27.95;37.95;100552.16;5039900;28;20641;-75
2021/06/17 08:02:06;;;;;;;8.60;4.75;;;;;;;27.98;37.72;100546.28;5108302;28;20190;-75
2021/06/17 08:04:35;;;;;;;9.77;4.28;;;;;;;28.15;37.58;100546.56;5107402;28;20064;-75
2021/06/17 08:07:02;;;;;;;6.95;4.55;;;;;;;28.44;37.55;100546.16;5107202;28;20106;-75
2021/06/17 08:09:29;;;;;;;8.50;5.47;;;;;;;28.29;37.61;100549.19;5106522;28;20071;-75
2021/06/17 08:11:56;;;;;;;6.80;4.72;;;;;;;28.21;38.23;100542.97;5106054;28;20075;-73
2021/06/17 08:14:26;;;;;;;5.95;4.97;;;;;;;28.35;38.25;100549.13;5105667;28;20039;-75
2021/06/17 08:16:56;;;;;;;7.53;5.05;;;;;;;28.38;38.15;100553.31;5072286;28;20063;-74
2021/06/17 08:19:28;;;;;;;7.80;4.97;;;;;;;28.43;37.64;100548.00;5105530;28;20054;-74
2021/06/17 08:21:59;;;;;;;8.77;5.50;;;;;;;28.49;37.79;100544.44;5106916;28;20134;-75
2021/06/17 08:24:27;;;;;;;8.35;5.72;;;;;;;28.86;37.28;100546.41;5106544;28;20052;-76
2021/06/17 08:26:56;;;;;;;7.55;4.72;;;;;;;28.97;37.16;100545.66;5107397;28;20615;-76
2021/06/17 08:29:23;;;;;;;9.00;5.43;;;;;;;28.97;37.21;100551.94;5104961;28;20679;-76
2021/06/17 08:31:51;;;;;;;7.85;5.35;;;;;;;29.29;36.12;100559.13;5102470;28;20047;-74
2021/06/17 08:34:18;;;;;;;10.55;6.78;;;;;;;29.34;36.33;100557.38;5086124;28;20129;-74
2021/06/17 08:36:45;;;;;;;10.15;6.50;;;;;;;29.22;36.94;100563.81;5104194;28;20127;-75
2021/06/17 08:39:14;;;;;;;7.07;5.47;;;;;;;29.35;36.14;100550.03;5103260;28;20195;-74
2021/06/17 08:41:41;;;;;;;10.23;6.13;;;;;;;29.34;37.12;100546.50;5103797;28;20055;-75
2021/06/17 08:44:08;;;;;;;7.38;5.60;;;;;;;29.16;36.83;100547.34;5103595;28;20062;-74
2021/06/17 08:46:35;;;;;;;7.97;5.22;;;;;;;29.04;36.51;100551.84;5103315;28;20055;-74
2021/06/17 08:49:02;;;;;;;8.88;4.93;;;;;;;28.87;36.92;100545.34;5103447;28;20510;-75
2021/06/17 08:51:32;;;;;;;6.30;5.55;;;;;;;28.78;37.81;100552.97;5104333;28;20145;-75
2021/06/17 08:53:59;;;;;;;10.20;5.10;;;;;;;28.76;36.90;100555.91;5105181;28;20047;-74
2021/06/17 08:56:28;;;;;;;7.47;6.43;;;;;;;28.92;36.72;100559.13;5108728;28;20230;-74
2021/06/17 08:58:56;;;;;;;6.15;5.20;;;;;;;29.22;36.20;100556.47;5103921;28;20055;-75
2021/06/17 09:01:23;;;;;;;10.90;5.78;;;;;;;29.20;36.35;100566.75;5103539;28;20346;-74
2021/06/17 09:03:50;;;;;;;8.45;4.75;;;;;;;29.28;36.14;100562.91;5107037;28;20044;-75
2021/06/17 09:06:18;;;;;;;6.65;4.47;;;;;;;29.40;35.69;100566.53;5103961;28;20048;-73
2021/06/17 09:08:58;;;;;;;9.60;6.05;;;;;;;29.54;35.91;100565.28;5107136;28;20271;-74
2021/06/17 09:11:28;;;;;;;6.78;5.05;;;;;;;29.80;35.37;100565.19;5104649;28;20043;-74
2021/06/17 09:14:15;;;;;;;7.55;4.57;;;;;;;30.30;34.35;100576.59;5108666;28;20040;-74
2021/06/17 09:16:55;;;;;;;6.18;4.40;;;;;;;30.56;33.41;100582.72;5108139;28;20043;-73
2021/06/17 09:19:36;;;;;;;8.82;4.80;;;;;;;30.44;33.32;100579.16;5103892;28;20044;-74
2021/06/17 09:22:04;;;;;;;10.13;5.70;;;;;;;30.35;33.26;100573.19;5105935;28;20050;-75
2021/06/17 09:24:34;;;;;;;9.90;6.32;;;;;;;30.54;33.75;100578.56;5103725;28;20052;-73
2021/06/17 09:27:20;;;;;;;9.02;5.93;;;;;;;30.37;34.15;100575.69;5104229;28;20074;-74
2021/06/17 09:29:48;;;;;;;7.13;4.88;;;;;;;30.25;34.13;100572.91;5101883;28;20039;-73
2021/06/17 09:32:20;;;;;;;8.70;5.35;;;;;;;30.31;34.18;100567.34;5105537;28;20064;-73
2021/06/17 09:34:47;;;;;;;5.90;4.65;;;;;;;30.38;34.25;100561.00;5104877;28;20077;-74
2021/06/17 09:37:42;;;;;;;6.53;5.65;;;;;;;30.66;33.83;100560.31;5103820;28;20039;-75
2021/06/17 09:40:29;;;;;;;7.90;5.53;;;;;;;30.71;33.95;100552.25;5104863;28;20042;-74
2021/06/17 09:43:18;;;;;;;10.10;5.45;;;;;;;30.35;34.54;100558.75;5085731;28;20055;-75
2021/06/17 09:45:57;;;;;;;6.75;5.25;;;;;;;30.16;34.50;100557.97;5108594;28;20047;-75
2021/06/17 09:48:45;;;;;;;7.13;4.88;;;;;;;29.90;34.17;100557.31;5087406;28;20039;-75
2021/06/17 09:51:27;;;;;;;7.80;4.40;;;;;;;29.61;34.66;100553.50;5088565;28;20070;-75
2021/06/17 09:54:07;;;;;;;7.20;5.03;;;;;;;29.46;35.04;100553.88;5102104;28;20051;-74
2021/06/17 09:56:36;;;;;;;8.05;4.43;;;;;;;29.47;34.20;100561.00;5104890;28;20097;-75
2021/06/17 09:59:09;;;;;;;6.82;4.85;;;;;;;29.62;33.98;100557.88;5104886;28;20044;-73
2021/06/17 10:01:41;;;;;;;9.88;5.22;;;;;;;29.86;33.95;100543.34;5085901;28;20320;-76
2021/06/17 10:04:10;;;;;;;6.72;4.88;;;;;;;29.70;34.39;100543.97;5103435;28;20051;-75
2021/06/17 10:06:38;;;;;;;6.47;4.85;;;;;;;29.87;33.75;100550.44;5103638;28;20051;-75
2021/06/17 10:09:08;;;;;;;8.15;4.50;;;;;;;29.86;33.63;100548.78;5110039;28;20048;-76
2021/06/17 10:11:40;;;;;;;5.13;4.55;;;;;;;29.83;33.60;100538.34;5111219;28;20047;-77
2021/06/17 10:14:09;;;;;;;6.25;5.07;;;;;;;30.07;33.68;100535.69;5110512;28;20131;-73
2021/06/17 10:16:40;;;;;;;10.55;4.85;;;;;;;30.35;32.98;100529.59;5107587;28;20152;-74
2021/06/17 10:19:07;;;;;;;8.30;4.75;;;;;;;30.61;33.00;100532.94;5109340;28;20221;-76
2021/06/17 10:21:34;;;;;;;9.77;5.22;;;;;;;30.77;33.02;100525.94;5092302;28;20051;-76
2021/06/17 10:24:13;;;;;;;9.00;5.70;;;;;;;30.75;32.79;100533.53;5092641;28;20058;-75
2021/06/17 10:26:43;;;;;;;9.23;5.25;;;;;;;30.47;33.32;100530.44;5109077;28;20079;-75
2021/06/17 10:29:22;;;;;;;6.82;4.85;;;;;;;30.42;33.39;100534.94;5110286;28;20654;-74
2021/06/17 10:31:51;;;;;;;14.13;6.75;;;;;;;30.49;33.06;100525.59;5088970;28;20110;-76
2021/06/17 10:37:50;;;;;;;9.57;5.07;;;;;;;30.59;32.85;100532.34;5024812;28;20048;-78
2021/06/17 10:40:19;;;;;;;8.55;4.80;;;;;;;30.67;31.58;100527.34;5023304;28;20085;-76
2021/06/17 10:42:47;;;;;;;12.20;4.88;;;;;;;30.89;31.74;100529.47;5025869;28;20046;-77
2021/06/17 10:45:35;;;;;;;7.30;5.10;;;;;;;30.91;30.92;100523.78;5025496;28;20659;-77
2021/06/17 10:48:07;;;;;;;9.90;4.93;;;;;;;30.81;32.10;100527.94;5025108;28;20049;-75
2021/06/17 10:50:51;;;;;;;5.00;4.50;;;;;;;31.15;31.31;100521.84;5025460;28;20109;-76
2021/06/17 10:53:46;;;;;;;8.48;5.43;;;;;;;31.29;31.29;100528.69;5025960;28;20041;-76
2021/06/17 10:56:18;;;;;;;5.85;4.03;;;;;;;31.36;30.75;100528.56;5017248;28;20083;-76
2021/06/17 10:58:57;;;;;;;8.18;4.22;;;;;;;31.33;30.70;100524.44;5031729;28;20200;-75
2021/06/17 11:01:31;;;;;;;6.72;4.40;;;;;;;31.34;30.70;100511.59;5033380;28;20165;-78
2021/06/17 11:04:12;;;;;;;6.40;4.93;;;;;;;31.21;31.13;100510.00;5036242;28;20083;-78
2021/06/17 11:07:17;;;;;;;7.28;5.13;;;;;;;30.80;31.68;100520.00;5022881;28;20057;-76
2021/06/17 11:09:51;;;;;;;8.77;4.33;;;;;;;30.69;31.74;100522.50;5023456;28;20121;-77
2021/06/17 11:12:48;;;;;;;5.00;4.07;;;;;;;30.60;30.46;100518.47;5086153;28;20431;-80
2021/06/17 11:15:55;;;;;;;6.03;4.03;;;;;;;30.35;30.43;100521.44;5108180;28;20052;-78
2021/06/17 11:18:57;;;;;;;11.60;6.18;;;;;;;30.08;31.86;100512.84;5106704;28;20691;-74
2021/06/17 11:21:41;;;;;;;4.35;3.70;;;;;;;29.96;32.30;100510.06;5104778;28;20112;-77
2021/06/17 11:24:31;;;;;;;5.10;3.80;;;;;;;29.90;31.88;100506.41;5106768;28;20097;-73
2021/06/17 11:26:59;;;;;;;4.97;3.72;;;;;;;29.76;31.86;100504.94;5105606;28;20792;-77
2021/06/17 11:29:58;;;;;;;5.45;3.50;;;;;;;29.91;31.03;100504.53;5089476;28;20501;-75
2021/06/17 11:32:31;;;;;;;4.43;3.80;;;;;;;29.94;30.24;100501.31;5045092;28;20631;-78
2021/06/17 11:35:00;;;;;;;4.90;3.67;;;;;;;29.91;30.13;100489.00;5042262;28;20128;-73
2021/06/17 11:37:33;;;;;;;5.53;3.78;;;;;;;29.99;30.08;100492.47;5041808;28;20214;-76
2021/06/17 11:40:00;;;;;;;5.80;3.67;;;;;;;29.97;30.16;100494.59;5043174;28;20430;-77
2021/06/17 11:42:28;;;;;;;5.95;4.03;;;;;;;29.89;30.34;100491.13;5023949;28;20064;-75
2021/06/17 11:45:07;;;;;;;7.75;5.55;;;;;;;30.14;30.04;100492.00;5041048;28;20059;-74